Enter the Airport ICAO Code

Search by Airport or City

Current Weather

KFXE | Fort Lauderdale Executive Airport

Fort Lauderdale, Florida, United States

Last Update 43 Minutes Ago

Sky with Few Clouds

Temperature of 22 ºC

Moderate Winds from North

Temperature

22 ºC

Dew Point Temperature

12 ºC

Relative Humidity

53.25 %

Wind Direction

North (020º, Without Significant Variations)

Wind Velocity

19 km/h (10 kt)

Gusts

None

Visibility

Greater than 10 Miles

Sea Level Pressure

30.17 inHg (Inches of Mercury)

Layers of Clouds

5% to 30% of Sky Covered from 1219 mts (4000 ft) Above Ground Level.

METAR KFXE 022053Z 02010KT 10SM FEW040 22/12 A3017 RMK AO2 SLP219 6//// T02170117 55011 PNO $

Weather Forecast

KFXE | Fort Lauderdale Executive Airport

Fort Lauderdale, Florida, United States

Forecast valid for the next 20 Hours

From now on it is expected:

Partly Cloudy Sky

Moderate Winds from NorthEast

In 2 hours it is expected the begining of:

Sky with Few Clouds

Light to Moderate Winds from NorthEast

In 16 hours it is expected the begining of:

Partly Cloudy Sky

Moderate Winds from East

Maximum Temperature

No Data

Minimum Temperature

No Data

TAF KFXE 022054Z 0221/0318 04013KT P6SM SCT040 FM030000 04007KT P6SM FEW040 FM031400 08012KT P6SM FEW030 SCT250